sensor_id;sensor_type;location;lat;lon;timestamp;P1;durP1;ratioP1;P2;durP2;ratioP2
15500;SDS011;7852;52.228;5.990;2023-03-19T00:03:32;1.9;;;0.7;;
15500;SDS011;7852;52.228;5.990;2023-03-19T00:04:28;0.6;;;0.6;;
15500;SDS011;7852;52.228;5.990;2023-03-19T00:05:28;1.4;;;0.7;;
15500;SDS011;7852;52.228;5.990;2023-03-19T00:06:28;0.8;;;0.7;;
15500;SDS011;7852;52.228;5.990;2023-03-19T00:07:28;0.9;;;0.8;;
15500;SDS011;7852;52.228;5.990;2023-03-19T00:08:28;0.4;;;0.4;;
15500;SDS011;7852;52.228;5.990;2023-03-19T00:09:28;0.7;;;0.7;;
15500;SDS011;7852;52.228;5.990;2023-03-19T00:10:28;1.3;;;0.9;;
15500;SDS011;7852;52.228;5.990;2023-03-19T00:11:28;1.3;;;0.9;;
15500;SDS011;7852;52.228;5.990;2023-03-19T00:12:28;0.4;;;0.4;;
15500;SDS011;7852;52.228;5.990;2023-03-19T00:13:28;6.7;;;1;;
15500;SDS011;7852;52.228;5.990;2023-03-19T00:14:28;1;;;0.8;;
15500;SDS011;7852;52.228;5.990;2023-03-19T00:15:28;2.7;;;1;;
15500;SDS011;7852;52.228;5.990;2023-03-19T00:16:28;1.1;;;0.9;;
15500;SDS011;7852;52.228;5.990;2023-03-19T00:17:28;1.9;;;0.8;;
15500;SDS011;7852;52.228;5.990;2023-03-19T00:18:28;1.2;;;0.9;;
15500;SDS011;7852;52.228;5.990;2023-03-19T00:19:28;0.6;;;0.6;;
15500;SDS011;7852;52.228;5.990;2023-03-19T00:20:28;0.9;;;0.8;;
15500;SDS011;7852;52.228;5.990;2023-03-19T00:21:28;1.2;;;1;;
15500;SDS011;7852;52.228;5.990;2023-03-19T00:22:28;1.3;;;0.8;;
15500;SDS011;7852;52.228;5.990;2023-03-19T00:23:28;1.3;;;0.8;;
15500;SDS011;7852;52.228;5.990;2023-03-19T00:24:28;1;;;0.8;;
15500;SDS011;7852;52.228;5.990;2023-03-19T00:25:28;2.5;;;0.8;;
15500;SDS011;7852;52.228;5.990;2023-03-19T00:26:28;2;;;1;;
15500;SDS011;7852;52.228;5.990;2023-03-19T00:27:28;1;;;0.8;;
15500;SDS011;7852;52.228;5.990;2023-03-19T00:28:28;1.1;;;0.9;;
15500;SDS011;7852;52.228;5.990;2023-03-19T00:29:28;1.7;;;1.1;;
15500;SDS011;7852;52.228;5.990;2023-03-19T00:30:28;0.7;;;0.7;;
15500;SDS011;7852;52.228;5.990;2023-03-19T00:31:28;1.1;;;1;;
15500;SDS011;7852;52.228;5.990;2023-03-19T00:32:28;1.3;;;1;;
15500;SDS011;7852;52.228;5.990;2023-03-19T00:33:28;1.1;;;1;;
15500;SDS011;7852;52.228;5.990;2023-03-19T00:34:28;0.9;;;0.9;;
15500;SDS011;7852;52.228;5.990;2023-03-19T00:35:28;0.9;;;0.8;;
15500;SDS011;7852;52.228;5.990;2023-03-19T00:36:29;1;;;0.9;;
15500;SDS011;7852;52.228;5.990;2023-03-19T00:37:29;1.1;;;1;;
15500;SDS011;7852;52.228;5.990;2023-03-19T00:38:29;1.1;;;1;;
15500;SDS011;7852;52.228;5.990;2023-03-19T00:39:29;2.5;;;1.1;;
15500;SDS011;7852;52.228;5.990;2023-03-19T00:40:29;0.8;;;0.7;;
15500;SDS011;7852;52.228;5.990;2023-03-19T00:41:29;1.6;;;1.1;;
15500;SDS011;7852;52.228;5.990;2023-03-19T00:42:29;1.8;;;1;;
15500;SDS011;7852;52.228;5.990;2023-03-19T00:43:29;1.1;;;1;;
15500;SDS011;7852;52.228;5.990;2023-03-19T00:44:29;1.1;;;1;;
15500;SDS011;7852;52.228;5.990;2023-03-19T00:45:29;0.8;;;0.7;;
15500;SDS011;7852;52.228;5.990;2023-03-19T00:46:29;0.8;;;0.8;;
15500;SDS011;7852;52.228;5.990;2023-03-19T00:47:29;1.3;;;1.1;;
15500;SDS011;7852;52.228;5.990;2023-03-19T00:48:31;1.7;;;1.1;;
15500;SDS011;7852;52.228;5.990;2023-03-19T00:49:31;2.4;;;1.1;;
15500;SDS011;7852;52.228;5.990;2023-03-19T00:50:31;1;;;0.9;;
15500;SDS011;7852;52.228;5.990;2023-03-19T00:51:31;1.6;;;1;;
15500;SDS011;7852;52.228;5.990;2023-03-19T00:52:31;2;;;1.1;;
15500;SDS011;7852;52.228;5.990;2023-03-19T00:53:31;0.7;;;0.7;;
15500;SDS011;7852;52.228;5.990;2023-03-19T00:54:31;1.2;;;1;;
15500;SDS011;7852;52.228;5.990;2023-03-19T00:55:31;1.3;;;0.8;;
15500;SDS011;7852;52.228;5.990;2023-03-19T00:56:31;1.1;;;1;;
15500;SDS011;7852;52.228;5.990;2023-03-19T00:57:31;2.1;;;0.8;;
15500;SDS011;7852;52.228;5.990;2023-03-19T00:58:31;1.1;;;1;;
15500;SDS011;7852;52.228;5.990;2023-03-19T00:59:31;1;;;0.9;;
15500;SDS011;7852;52.228;5.990;2023-03-19T01:00:31;1;;;0.9;;
15500;SDS011;7852;52.228;5.990;2023-03-19T01:01:31;0.9;;;0.9;;
15500;SDS011;7852;52.228;5.990;2023-03-19T01:02:32;0.9;;;0.9;;
15500;SDS011;7852;52.228;5.990;2023-03-19T01:03:32;0.8;;;0.8;;
15500;SDS011;7852;52.228;5.990;2023-03-19T01:04:32;1.1;;;1;;
15500;SDS011;7852;52.228;5.990;2023-03-19T01:05:33;2.2;;;0.9;;
15500;SDS011;7852;52.228;5.990;2023-03-19T01:06:32;2.4;;;1;;
15500;SDS011;7852;52.228;5.990;2023-03-19T01:07:32;1.3;;;0.8;;
15500;SDS011;7852;52.228;5.990;2023-03-19T01:08:32;1.1;;;1;;
15500;SDS011;7852;52.228;5.990;2023-03-19T01:09:33;1.6;;;1;;
15500;SDS011;7852;52.228;5.990;2023-03-19T01:10:33;1.2;;;1.1;;
15500;SDS011;7852;52.228;5.990;2023-03-19T01:11:33;2;;;1.2;;
15500;SDS011;7852;52.228;5.990;2023-03-19T01:12:33;1.2;;;1.1;;
15500;SDS011;7852;52.228;5.990;2023-03-19T01:13:33;1.8;;;1.3;;
15500;SDS011;7852;52.228;5.990;2023-03-19T01:14:33;2.5;;;1.5;;
15500;SDS011;7852;52.228;5.990;2023-03-19T01:15:34;3;;;1.6;;
15500;SDS011;7852;52.228;5.990;2023-03-19T01:16:33;1.1;;;1;;
15500;SDS011;7852;52.228;5.990;2023-03-19T01:17:33;1.2;;;1.1;;
15500;SDS011;7852;52.228;5.990;2023-03-19T01:18:34;0.7;;;0.7;;
15500;SDS011;7852;52.228;5.990;2023-03-19T01:19:34;2.9;;;1.2;;
15500;SDS011;7852;52.228;5.990;2023-03-19T01:20:34;0.8;;;0.8;;
15500;SDS011;7852;52.228;5.990;2023-03-19T01:21:34;0.8;;;0.7;;
15500;SDS011;7852;52.228;5.990;2023-03-19T01:22:34;1.8;;;1.3;;
15500;SDS011;7852;52.228;5.990;2023-03-19T01:23:34;2.5;;;1.6;;
15500;SDS011;7852;52.228;5.990;2023-03-19T01:24:34;0.9;;;0.9;;
15500;SDS011;7852;52.228;5.990;2023-03-19T01:25:34;1.3;;;1.2;;
15500;SDS011;7852;52.228;5.990;2023-03-19T01:26:34;0.9;;;0.9;;
15500;SDS011;7852;52.228;5.990;2023-03-19T01:27:34;1.3;;;1.1;;
15500;SDS011;7852;52.228;5.990;2023-03-19T01:28:34;1.1;;;1;;
15500;SDS011;7852;52.228;5.990;2023-03-19T01:29:34;1.4;;;1.2;;
15500;SDS011;7852;52.228;5.990;2023-03-19T01:30:36;0.9;;;0.9;;
15500;SDS011;7852;52.228;5.990;2023-03-19T01:31:36;1.8;;;1.1;;
15500;SDS011;7852;52.228;5.990;2023-03-19T01:32:36;1.5;;;1.4;;
15500;SDS011;7852;52.228;5.990;2023-03-19T01:33:36;4.1;;;1.1;;
15500;SDS011;7852;52.228;5.990;2023-03-19T01:34:36;0.9;;;0.9;;
15500;SDS011;7852;52.228;5.990;2023-03-19T01:35:37;1.4;;;1.1;;
15500;SDS011;7852;52.228;5.990;2023-03-19T01:36:37;2.7;;;1.1;;
15500;SDS011;7852;52.228;5.990;2023-03-19T01:37:37;1;;;1;;
15500;SDS011;7852;52.228;5.990;2023-03-19T01:38:37;0.9;;;0.8;;
15500;SDS011;7852;52.228;5.990;2023-03-19T01:39:37;1.6;;;1.4;;
15500;SDS011;7852;52.228;5.990;2023-03-19T01:40:42;1.1;;;1;;
15500;SDS011;7852;52.228;5.990;2023-03-19T01:41:38;1.2;;;1.1;;
15500;SDS011;7852;52.228;5.990;2023-03-19T01:42:49;1.2;;;1.1;;
15500;SDS011;7852;52.228;5.990;2023-03-19T01:43:37;1.7;;;1;;
15500;SDS011;7852;52.228;5.990;2023-03-19T01:44:38;1.1;;;1;;
15500;SDS011;7852;52.228;5.990;2023-03-19T01:45:38;1.4;;;1.3;;
15500;SDS011;7852;52.228;5.990;2023-03-19T01:46:37;0.9;;;0.9;;
15500;SDS011;7852;52.228;5.990;2023-03-19T01:47:38;1.2;;;1.1;;
15500;SDS011;7852;52.228;5.990;2023-03-19T01:48:38;1.4;;;1;;
15500;SDS011;7852;52.228;5.990;2023-03-19T01:49:37;0.9;;;0.9;;
15500;SDS011;7852;52.228;5.990;2023-03-19T01:50:39;1.7;;;1.4;;
15500;SDS011;7852;52.228;5.990;2023-03-19T01:51:38;1.4;;;1.1;;
15500;SDS011;7852;52.228;5.990;2023-03-19T01:52:38;1.3;;;1.2;;
15500;SDS011;7852;52.228;5.990;2023-03-19T01:53:38;2.2;;;1.4;;
15500;SDS011;7852;52.228;5.990;2023-03-19T01:54:38;1.3;;;1.2;;
15500;SDS011;7852;52.228;5.990;2023-03-19T01:55:38;1.7;;;1.1;;
15500;SDS011;7852;52.228;5.990;2023-03-19T01:56:38;1.2;;;1.1;;
15500;SDS011;7852;52.228;5.990;2023-03-19T01:57:38;1;;;1;;
15500;SDS011;7852;52.228;5.990;2023-03-19T01:58:38;1.1;;;1;;
15500;SDS011;7852;52.228;5.990;2023-03-19T01:59:38;2.7;;;1.3;;
15500;SDS011;7852;52.228;5.990;2023-03-19T02:00:38;1.1;;;1.1;;
15500;SDS011;7852;52.228;5.990;2023-03-19T02:01:39;1.4;;;1.3;;
15500;SDS011;7852;52.228;5.990;2023-03-19T02:02:38;1.7;;;1.4;;
15500;SDS011;7852;52.228;5.990;2023-03-19T02:03:38;0.9;;;0.9;;
15500;SDS011;7852;52.228;5.990;2023-03-19T02:04:39;1.4;;;1.1;;
15500;SDS011;7852;52.228;5.990;2023-03-19T02:05:38;1.4;;;1.3;;
15500;SDS011;7852;52.228;5.990;2023-03-19T02:06:38;2.4;;;1;;
15500;SDS011;7852;52.228;5.990;2023-03-19T02:07:39;1.5;;;1.4;;
15500;SDS011;7852;52.228;5.990;2023-03-19T02:08:39;1.5;;;1.4;;
15500;SDS011;7852;52.228;5.990;2023-03-19T02:09:39;1.4;;;1.3;;
15500;SDS011;7852;52.228;5.990;2023-03-19T02:10:39;2.3;;;1.2;;
15500;SDS011;7852;52.228;5.990;2023-03-19T02:11:39;1.6;;;1.5;;
15500;SDS011;7852;52.228;5.990;2023-03-19T02:12:39;1;;;1;;
15500;SDS011;7852;52.228;5.990;2023-03-19T02:13:39;1.3;;;1.1;;
15500;SDS011;7852;52.228;5.990;2023-03-19T02:14:39;1.3;;;1.2;;
15500;SDS011;7852;52.228;5.990;2023-03-19T02:15:39;1.3;;;1.2;;
15500;SDS011;7852;52.228;5.990;2023-03-19T02:16:39;1.5;;;1.2;;
15500;SDS011;7852;52.228;5.990;2023-03-19T02:17:39;1.4;;;1.3;;
15500;SDS011;7852;52.228;5.990;2023-03-19T02:18:39;2.7;;;1.2;;
15500;SDS011;7852;52.228;5.990;2023-03-19T02:19:41;1.3;;;1.1;;
15500;SDS011;7852;52.228;5.990;2023-03-19T02:20:41;4.1;;;1.1;;
15500;SDS011;7852;52.228;5.990;2023-03-19T02:21:39;1.2;;;1.1;;
15500;SDS011;7852;52.228;5.990;2023-03-19T02:22:40;2;;;1.1;;
15500;SDS011;7852;52.228;5.990;2023-03-19T02:23:40;1.3;;;1.2;;
15500;SDS011;7852;52.228;5.990;2023-03-19T02:24:40;1.3;;;1.2;;
15500;SDS011;7852;52.228;5.990;2023-03-19T02:25:40;1.5;;;1.3;;
15500;SDS011;7852;52.228;5.990;2023-03-19T02:26:39;1.1;;;1.1;;
15500;SDS011;7852;52.228;5.990;2023-03-19T02:27:39;1;;;0.9;;
15500;SDS011;7852;52.228;5.990;2023-03-19T02:28:40;2.2;;;1.3;;
15500;SDS011;7852;52.228;5.990;2023-03-19T02:29:39;1.4;;;1.3;;
15500;SDS011;7852;52.228;5.990;2023-03-19T02:30:39;1.3;;;1.2;;
15500;SDS011;7852;52.228;5.990;2023-03-19T02:31:39;2.5;;;1.4;;
15500;SDS011;7852;52.228;5.990;2023-03-19T02:32:40;1.3;;;1.2;;
15500;SDS011;7852;52.228;5.990;2023-03-19T02:33:40;2.2;;;1.5;;
15500;SDS011;7852;52.228;5.990;2023-03-19T02:34:42;3;;;1.1;;
15500;SDS011;7852;52.228;5.990;2023-03-19T02:35:41;2.2;;;1.3;;
15500;SDS011;7852;52.228;5.990;2023-03-19T02:36:41;1.7;;;1.6;;
15500;SDS011;7852;52.228;5.990;2023-03-19T02:37:41;2.8;;;1.3;;
15500;SDS011;7852;52.228;5.990;2023-03-19T02:38:42;3;;;1.6;;
15500;SDS011;7852;52.228;5.990;2023-03-19T02:39:47;2;;;1.5;;
15500;SDS011;7852;52.228;5.990;2023-03-19T02:40:46;1.8;;;1.3;;
15500;SDS011;7852;52.228;5.990;2023-03-19T02:41:44;1.4;;;1.3;;
15500;SDS011;7852;52.228;5.990;2023-03-19T02:42:44;1.4;;;1.3;;
15500;SDS011;7852;52.228;5.990;2023-03-19T02:43:44;3;;;1.4;;
15500;SDS011;7852;52.228;5.990;2023-03-19T02:44:44;1.2;;;1.2;;
15500;SDS011;7852;52.228;5.990;2023-03-19T02:45:44;1.6;;;1.5;;
15500;SDS011;7852;52.228;5.990;2023-03-19T02:46:44;1.5;;;1.4;;
15500;SDS011;7852;52.228;5.990;2023-03-19T02:47:44;2.4;;;1.6;;
15500;SDS011;7852;52.228;5.990;2023-03-19T02:48:45;1.6;;;1.5;;
15500;SDS011;7852;52.228;5.990;2023-03-19T02:49:48;1.3;;;1.2;;
15500;SDS011;7852;52.228;5.990;2023-03-19T02:50:48;2;;;1.4;;
15500;SDS011;7852;52.228;5.990;2023-03-19T02:51:48;1.6;;;1.5;;
15500;SDS011;7852;52.228;5.990;2023-03-19T02:52:48;2;;;1.2;;
15500;SDS011;7852;52.228;5.990;2023-03-19T02:53:49;1.6;;;1.5;;
15500;SDS011;7852;52.228;5.990;2023-03-19T02:54:49;1.7;;;1.6;;
15500;SDS011;7852;52.228;5.990;2023-03-19T02:55:49;3.8;;;1.3;;
15500;SDS011;7852;52.228;5.990;2023-03-19T02:56:49;1.5;;;1.4;;
15500;SDS011;7852;52.228;5.990;2023-03-19T02:57:49;1.6;;;1.5;;
15500;SDS011;7852;52.228;5.990;2023-03-19T02:58:49;1.5;;;1.4;;
15500;SDS011;7852;52.228;5.990;2023-03-19T02:59:49;1.9;;;1.8;;
15500;SDS011;7852;52.228;5.990;2023-03-19T03:00:49;2.3;;;1.7;;
15500;SDS011;7852;52.228;5.990;2023-03-19T03:01:49;2.2;;;1.6;;
15500;SDS011;7852;52.228;5.990;2023-03-19T03:02:49;1.7;;;1.5;;
15500;SDS011;7852;52.228;5.990;2023-03-19T03:03:59;2.2;;;1.6;;
15500;SDS011;7852;52.228;5.990;2023-03-19T03:04:49;1.9;;;1.7;;
15500;SDS011;7852;52.228;5.990;2023-03-19T03:05:50;2.1;;;1.9;;
15500;SDS011;7852;52.228;5.990;2023-03-19T03:06:50;1.7;;;1.6;;
15500;SDS011;7852;52.228;5.990;2023-03-19T03:07:50;2.1;;;1.9;;
15500;SDS011;7852;52.228;5.990;2023-03-19T03:08:50;2.2;;;1.7;;
15500;SDS011;7852;52.228;5.990;2023-03-19T03:09:50;1.7;;;1.6;;
15500;SDS011;7852;52.228;5.990;2023-03-19T03:10:50;1.6;;;1.4;;
15500;SDS011;7852;52.228;5.990;2023-03-19T03:11:50;2;;;1.8;;
15500;SDS011;7852;52.228;5.990;2023-03-19T03:12:50;1.9;;;1.5;;
15500;SDS011;7852;52.228;5.990;2023-03-19T03:13:50;1.6;;;1.5;;
15500;SDS011;7852;52.228;5.990;2023-03-19T03:14:50;3.4;;;1.5;;
15500;SDS011;7852;52.228;5.990;2023-03-19T03:15:50;2.6;;;1.6;;
15500;SDS011;7852;52.228;5.990;2023-03-19T03:16:50;2;;;1.8;;
15500;SDS011;7852;52.228;5.990;2023-03-19T03:17:52;1.6;;;1.5;;
15500;SDS011;7852;52.228;5.990;2023-03-19T03:18:52;1.8;;;1.7;;
15500;SDS011;7852;52.228;5.990;2023-03-19T03:19:52;1.9;;;1.8;;
15500;SDS011;7852;52.228;5.990;2023-03-19T03:20:52;1.7;;;1.6;;
15500;SDS011;7852;52.228;5.990;2023-03-19T03:21:52;2;;;1.9;;
15500;SDS011;7852;52.228;5.990;2023-03-19T03:22:52;2.3;;;1.8;;
15500;SDS011;7852;52.228;5.990;2023-03-19T03:23:52;2.6;;;1.9;;
15500;SDS011;7852;52.228;5.990;2023-03-19T03:24:52;1.7;;;1.6;;
15500;SDS011;7852;52.228;5.990;2023-03-19T03:25:52;2.1;;;1.8;;
15500;SDS011;7852;52.228;5.990;2023-03-19T03:26:52;2;;;1.8;;
15500;SDS011;7852;52.228;5.990;2023-03-19T03:27:52;2;;;1.9;;
15500;SDS011;7852;52.228;5.990;2023-03-19T03:28:52;1.7;;;1.6;;
15500;SDS011;7852;52.228;5.990;2023-03-19T03:29:52;2.6;;;2;;
15500;SDS011;7852;52.228;5.990;2023-03-19T03:30:56;2.6;;;2.3;;
15500;SDS011;7852;52.228;5.990;2023-03-19T03:31:52;2.7;;;2.5;;
15500;SDS011;7852;52.228;5.990;2023-03-19T03:32:52;3.5;;;2.2;;
15500;SDS011;7852;52.228;5.990;2023-03-19T03:33:52;2.3;;;2.1;;
15500;SDS011;7852;52.228;5.990;2023-03-19T03:34:52;3.8;;;2.3;;
15500;SDS011;7852;52.228;5.990;2023-03-19T03:35:52;1.8;;;1.7;;
15500;SDS011;7852;52.228;5.990;2023-03-19T03:36:52;3.3;;;2.2;;
15500;SDS011;7852;52.228;5.990;2023-03-19T03:37:52;2.3;;;2.1;;
15500;SDS011;7852;52.228;5.990;2023-03-19T03:38:52;2.6;;;2.4;;
15500;SDS011;7852;52.228;5.990;2023-03-19T03:39:53;3.5;;;2.5;;
15500;SDS011;7852;52.228;5.990;2023-03-19T03:40:54;2.8;;;2.6;;
15500;SDS011;7852;52.228;5.990;2023-03-19T03:41:54;2.6;;;2.4;;
15500;SDS011;7852;52.228;5.990;2023-03-19T03:42:54;1.9;;;1.8;;
15500;SDS011;7852;52.228;5.990;2023-03-19T03:43:54;2.3;;;2.1;;
15500;SDS011;7852;52.228;5.990;2023-03-19T03:44:54;2.6;;;2.2;;
15500;SDS011;7852;52.228;5.990;2023-03-19T03:45:54;3.5;;;2.7;;
15500;SDS011;7852;52.228;5.990;2023-03-19T03:46:54;3.2;;;2.7;;
15500;SDS011;7852;52.228;5.990;2023-03-19T03:47:54;2.8;;;2.2;;
15500;SDS011;7852;52.228;5.990;2023-03-19T03:48:54;2.5;;;2.3;;
15500;SDS011;7852;52.228;5.990;2023-03-19T03:49:54;2.3;;;2.1;;
15500;SDS011;7852;52.228;5.990;2023-03-19T03:50:56;2.9;;;2.4;;
15500;SDS011;7852;52.228;5.990;2023-03-19T03:51:56;2.7;;;2.4;;
15500;SDS011;7852;52.228;5.990;2023-03-19T03:52:54;4.8;;;2.9;;
15500;SDS011;7852;52.228;5.990;2023-03-19T03:53:54;2;;;1.8;;
15500;SDS011;7852;52.228;5.990;2023-03-19T03:54:54;2.8;;;2.3;;
15500;SDS011;7852;52.228;5.990;2023-03-19T03:55:54;2.2;;;2;;
15500;SDS011;7852;52.228;5.990;2023-03-19T03:56:54;3.6;;;2.7;;
15500;SDS011;7852;52.228;5.990;2023-03-19T03:57:54;3.2;;;2.1;;
15500;SDS011;7852;52.228;5.990;2023-03-19T03:58:54;2.2;;;2.1;;
15500;SDS011;7852;52.228;5.990;2023-03-19T03:59:59;2.3;;;2.1;;
15500;SDS011;7852;52.228;5.990;2023-03-19T04:00:54;2.7;;;2;;
15500;SDS011;7852;52.228;5.990;2023-03-19T04:01:56;2.6;;;2.4;;
15500;SDS011;7852;52.228;5.990;2023-03-19T04:02:54;3.9;;;2.3;;
15500;SDS011;7852;52.228;5.990;2023-03-19T04:03:54;2.2;;;2;;
15500;SDS011;7852;52.228;5.990;2023-03-19T04:04:54;2.4;;;1.8;;
15500;SDS011;7852;52.228;5.990;2023-03-19T04:05:54;3.6;;;2.6;;
15500;SDS011;7852;52.228;5.990;2023-03-19T04:06:54;3.7;;;2.8;;
15500;SDS011;7852;52.228;5.990;2023-03-19T04:07:59;3.1;;;2.5;;
15500;SDS011;7852;52.228;5.990;2023-03-19T04:08:55;3.4;;;2.6;;
15500;SDS011;7852;52.228;5.990;2023-03-19T04:09:55;2.4;;;2.2;;
15500;SDS011;7852;52.228;5.990;2023-03-19T04:10:54;2.7;;;2.5;;
15500;SDS011;7852;52.228;5.990;2023-03-19T04:11:54;3.5;;;2.7;;
15500;SDS011;7852;52.228;5.990;2023-03-19T04:12:57;2.5;;;2.3;;
15500;SDS011;7852;52.228;5.990;2023-03-19T04:13:54;2.9;;;2.6;;
15500;SDS011;7852;52.228;5.990;2023-03-19T04:14:54;3.3;;;2.5;;
15500;SDS011;7852;52.228;5.990;2023-03-19T04:15:57;4.7;;;2.4;;
15500;SDS011;7852;52.228;5.990;2023-03-19T04:16:54;3.1;;;2.8;;
15500;SDS011;7852;52.228;5.990;2023-03-19T04:17:54;2.6;;;2.4;;
15500;SDS011;7852;52.228;5.990;2023-03-19T04:18:54;4.7;;;2.5;;
15500;SDS011;7852;52.228;5.990;2023-03-19T04:19:54;3.9;;;2.3;;
15500;SDS011;7852;52.228;5.990;2023-03-19T04:20:58;4.4;;;2.5;;
15500;SDS011;7852;52.228;5.990;2023-03-19T04:21:54;2.5;;;2.3;;
15500;SDS011;7852;52.228;5.990;2023-03-19T04:22:54;2.6;;;2.4;;
15500;SDS011;7852;52.228;5.990;2023-03-19T04:23:54;2.5;;;2.3;;
15500;SDS011;7852;52.228;5.990;2023-03-19T04:24:54;2.7;;;2.5;;
15500;SDS011;7852;52.228;5.990;2023-03-19T04:25:56;2.1;;;1.9;;
15500;SDS011;7852;52.228;5.990;2023-03-19T04:26:54;2.4;;;2.2;;
15500;SDS011;7852;52.228;5.990;2023-03-19T04:27:55;3.2;;;2.7;;
15500;SDS011;7852;52.228;5.990;2023-03-19T04:28:54;3;;;2.7;;
15500;SDS011;7852;52.228;5.990;2023-03-19T04:29:54;3.3;;;2.7;;
15500;SDS011;7852;52.228;5.990;2023-03-19T04:30:57;2.6;;;2.4;;
15500;SDS011;7852;52.228;5.990;2023-03-19T04:31:54;2.6;;;2.3;;
15500;SDS011;7852;52.228;5.990;2023-03-19T04:32:54;2.5;;;2.3;;
15500;SDS011;7852;52.228;5.990;2023-03-19T04:33:54;2.2;;;2;;
15500;SDS011;7852;52.228;5.990;2023-03-19T04:34:54;4.1;;;2.2;;
15500;SDS011;7852;52.228;5.990;2023-03-19T04:35:54;2.5;;;2.3;;
15500;SDS011;7852;52.228;5.990;2023-03-19T04:36:54;2.7;;;2.5;;
15500;SDS011;7852;52.228;5.990;2023-03-19T04:37:54;2.4;;;2.2;;
15500;SDS011;7852;52.228;5.990;2023-03-19T04:38:55;3.1;;;2.8;;
15500;SDS011;7852;52.228;5.990;2023-03-19T04:39:55;2.4;;;2.2;;
15500;SDS011;7852;52.228;5.990;2023-03-19T04:40:56;3;;;2.5;;
15500;SDS011;7852;52.228;5.990;2023-03-19T04:41:56;2.4;;;2.1;;
15500;SDS011;7852;52.228;5.990;2023-03-19T04:42:57;2.7;;;2.5;;
15500;SDS011;7852;52.228;5.990;2023-03-19T04:43:57;2.6;;;2.4;;
15500;SDS011;7852;52.228;5.990;2023-03-19T04:44:57;2.5;;;2.3;;
15500;SDS011;7852;52.228;5.990;2023-03-19T04:45:57;2.5;;;2.3;;
15500;SDS011;7852;52.228;5.990;2023-03-19T04:46:57;2.9;;;2.7;;
15500;SDS011;7852;52.228;5.990;2023-03-19T04:47:57;2.8;;;2.5;;
15500;SDS011;7852;52.228;5.990;2023-03-19T04:48:57;2.8;;;2.3;;
15500;SDS011;7852;52.228;5.990;2023-03-19T04:49:57;2.6;;;2.4;;
15500;SDS011;7852;52.228;5.990;2023-03-19T04:50:57;2.4;;;2.3;;
15500;SDS011;7852;52.228;5.990;2023-03-19T04:51:57;2.5;;;2.3;;
15500;SDS011;7852;52.228;5.990;2023-03-19T04:52:57;2.8;;;2.5;;
15500;SDS011;7852;52.228;5.990;2023-03-19T04:53:57;3;;;2.7;;
15500;SDS011;7852;52.228;5.990;2023-03-19T04:54:57;2.8;;;2.6;;
15500;SDS011;7852;52.228;5.990;2023-03-19T04:55:57;2.2;;;2.1;;
15500;SDS011;7852;52.228;5.990;2023-03-19T04:56:57;3.5;;;2.9;;
15500;SDS011;7852;52.228;5.990;2023-03-19T04:57:58;3;;;2.7;;
15500;SDS011;7852;52.228;5.990;2023-03-19T04:58:57;4;;;3.1;;
15500;SDS011;7852;52.228;5.990;2023-03-19T04:59:57;3.3;;;3;;
15500;SDS011;7852;52.228;5.990;2023-03-19T05:00:57;3.3;;;3;;
15500;SDS011;7852;52.228;5.990;2023-03-19T05:01:57;3.1;;;2.8;;
15500;SDS011;7852;52.228;5.990;2023-03-19T05:02:57;3.8;;;3.1;;
15500;SDS011;7852;52.228;5.990;2023-03-19T05:03:57;3.7;;;3;;
15500;SDS011;7852;52.228;5.990;2023-03-19T05:04:57;3.5;;;3.2;;
15500;SDS011;7852;52.228;5.990;2023-03-19T05:05:57;5.4;;;3.3;;
15500;SDS011;7852;52.228;5.990;2023-03-19T05:06:57;3.5;;;3.1;;
15500;SDS011;7852;52.228;5.990;2023-03-19T05:07:57;4.3;;;2.7;;
15500;SDS011;7852;52.228;5.990;2023-03-19T05:08:57;3.9;;;3.2;;
15500;SDS011;7852;52.228;5.990;2023-03-19T05:09:57;3.4;;;3.1;;
15500;SDS011;7852;52.228;5.990;2023-03-19T05:10:57;4.4;;;2.9;;
15500;SDS011;7852;52.228;5.990;2023-03-19T05:11:57;2.8;;;2.6;;
15500;SDS011;7852;52.228;5.990;2023-03-19T05:12:57;3;;;2.7;;
15500;SDS011;7852;52.228;5.990;2023-03-19T05:13:59;3.7;;;3.3;;
15500;SDS011;7852;52.228;5.990;2023-03-19T05:15:00;5.1;;;3.2;;
15500;SDS011;7852;52.228;5.990;2023-03-19T05:15:59;3.9;;;3.1;;
15500;SDS011;7852;52.228;5.990;2023-03-19T05:16:59;3.5;;;3.1;;
15500;SDS011;7852;52.228;5.990;2023-03-19T05:17:59;4.3;;;3.3;;
15500;SDS011;7852;52.228;5.990;2023-03-19T05:18:59;3.3;;;3;;
15500;SDS011;7852;52.228;5.990;2023-03-19T05:19:59;4.7;;;3;;
15500;SDS011;7852;52.228;5.990;2023-03-19T05:20:59;3.5;;;2.9;;
15500;SDS011;7852;52.228;5.990;2023-03-19T05:21:59;4.2;;;2.9;;
15500;SDS011;7852;52.228;5.990;2023-03-19T05:22:59;3.7;;;3.3;;
15500;SDS011;7852;52.228;5.990;2023-03-19T05:23:59;3.3;;;3;;
15500;SDS011;7852;52.228;5.990;2023-03-19T05:24:59;5.4;;;2.9;;
15500;SDS011;7852;52.228;5.990;2023-03-19T05:26:00;4.3;;;3.1;;
15500;SDS011;7852;52.228;5.990;2023-03-19T05:27:01;3.2;;;2.8;;
15500;SDS011;7852;52.228;5.990;2023-03-19T05:28:01;3.2;;;2.7;;
15500;SDS011;7852;52.228;5.990;2023-03-19T05:29:00;3;;;2.8;;
15500;SDS011;7852;52.228;5.990;2023-03-19T05:30:00;3;;;2.7;;
15500;SDS011;7852;52.228;5.990;2023-03-19T05:31:02;2.7;;;2.5;;
15500;SDS011;7852;52.228;5.990;2023-03-19T05:32:03;4.4;;;2.8;;
15500;SDS011;7852;52.228;5.990;2023-03-19T05:33:03;3.4;;;2.7;;
15500;SDS011;7852;52.228;5.990;2023-03-19T05:34:03;3;;;2.8;;
15500;SDS011;7852;52.228;5.990;2023-03-19T05:35:03;3.3;;;2.8;;
15500;SDS011;7852;52.228;5.990;2023-03-19T05:36:03;3.7;;;3.4;;
15500;SDS011;7852;52.228;5.990;2023-03-19T05:37:03;2.8;;;2.5;;
15500;SDS011;7852;52.228;5.990;2023-03-19T05:38:03;3;;;2.8;;
15500;SDS011;7852;52.228;5.990;2023-03-19T05:39:03;4;;;2.8;;
15500;SDS011;7852;52.228;5.990;2023-03-19T05:40:03;3;;;2.8;;
15500;SDS011;7852;52.228;5.990;2023-03-19T05:41:03;3.4;;;2.6;;
15500;SDS011;7852;52.228;5.990;2023-03-19T05:42:03;2.5;;;2.3;;
15500;SDS011;7852;52.228;5.990;2023-03-19T05:43:03;4.4;;;2.9;;
15500;SDS011;7852;52.228;5.990;2023-03-19T05:44:03;3.4;;;3.1;;
15500;SDS011;7852;52.228;5.990;2023-03-19T05:45:03;3.2;;;2.9;;
15500;SDS011;7852;52.228;5.990;2023-03-19T05:46:03;3.8;;;3.1;;
15500;SDS011;7852;52.228;5.990;2023-03-19T05:47:03;3.7;;;3.3;;
15500;SDS011;7852;52.228;5.990;2023-03-19T05:48:03;3.7;;;3.2;;
15500;SDS011;7852;52.228;5.990;2023-03-19T05:49:03;2.8;;;2.6;;
15500;SDS011;7852;52.228;5.990;2023-03-19T05:50:04;3.5;;;3.2;;
15500;SDS011;7852;52.228;5.990;2023-03-19T05:51:04;4.1;;;3.2;;
15500;SDS011;7852;52.228;5.990;2023-03-19T05:52:04;4.2;;;3.6;;
15500;SDS011;7852;52.228;5.990;2023-03-19T05:53:04;4.6;;;3.8;;
15500;SDS011;7852;52.228;5.990;2023-03-19T05:54:04;4.4;;;3.9;;
15500;SDS011;7852;52.228;5.990;2023-03-19T05:55:04;5.6;;;4;;
15500;SDS011;7852;52.228;5.990;2023-03-19T05:56:04;4.4;;;3.8;;
15500;SDS011;7852;52.228;5.990;2023-03-19T05:57:04;4.4;;;4;;
15500;SDS011;7852;52.228;5.990;2023-03-19T05:58:04;6.1;;;4.4;;
15500;SDS011;7852;52.228;5.990;2023-03-19T05:59:04;6;;;3.8;;
15500;SDS011;7852;52.228;5.990;2023-03-19T06:00:05;4.5;;;4.1;;
15500;SDS011;7852;52.228;5.990;2023-03-19T06:01:04;4.2;;;3.8;;
15500;SDS011;7852;52.228;5.990;2023-03-19T06:02:04;4.2;;;3.8;;
15500;SDS011;7852;52.228;5.990;2023-03-19T06:03:04;6.1;;;4.5;;
15500;SDS011;7852;52.228;5.990;2023-03-19T06:04:04;6.1;;;4.3;;
15500;SDS011;7852;52.228;5.990;2023-03-19T06:05:04;7.2;;;5;;
15500;SDS011;7852;52.228;5.990;2023-03-19T06:06:04;8;;;6;;
15500;SDS011;7852;52.228;5.990;2023-03-19T06:07:04;8;;;6;;
15500;SDS011;7852;52.228;5.990;2023-03-19T06:08:04;5.9;;;4.6;;
15500;SDS011;7852;52.228;5.990;2023-03-19T06:09:04;6.1;;;4.4;;
15500;SDS011;7852;52.228;5.990;2023-03-19T06:10:04;5.1;;;4.5;;
15500;SDS011;7852;52.228;5.990;2023-03-19T06:11:04;9.4;;;5.5;;
15500;SDS011;7852;52.228;5.990;2023-03-19T06:12:04;8;;;5.3;;
15500;SDS011;7852;52.228;5.990;2023-03-19T06:13:04;7;;;5.8;;
15500;SDS011;7852;52.228;5.990;2023-03-19T06:14:04;8;;;5.6;;
15500;SDS011;7852;52.228;5.990;2023-03-19T06:15:04;8.1;;;6.6;;
15500;SDS011;7852;52.228;5.990;2023-03-19T06:16:04;9.3;;;6.2;;
15500;SDS011;7852;52.228;5.990;2023-03-19T06:17:04;8.3;;;6.7;;
15500;SDS011;7852;52.228;5.990;2023-03-19T06:18:04;6.4;;;5.6;;
15500;SDS011;7852;52.228;5.990;2023-03-19T06:19:04;6.4;;;5.4;;
15500;SDS011;7852;52.228;5.990;2023-03-19T06:20:05;8.6;;;6.1;;
15500;SDS011;7852;52.228;5.990;2023-03-19T06:21:05;9.8;;;6.3;;
15500;SDS011;7852;52.228;5.990;2023-03-19T06:22:05;8.2;;;6.6;;
15500;SDS011;7852;52.228;5.990;2023-03-19T06:23:05;9.1;;;6.8;;
15500;SDS011;7852;52.228;5.990;2023-03-19T06:24:05;6.1;;;5.5;;
15500;SDS011;7852;52.228;5.990;2023-03-19T06:25:05;8.8;;;6.8;;